<?xml version="1.0" encoding="UTF-8" standalone="no" ?>
<gpx xmlns="http://www.topografix.com/GPX/1/1" xmlns:xsi="http://www.w3.org/2001/XMLSchema-instance" xsi:schemaLocation="http://www.topografix.com/GPX/1/1 http://www.topografix.com/GPX/1/1/gpx.xsd" version="1.1" creator="VisuGPX - https://www.visugpx.com">
  <metadata>
    <name>Budapest</name>
  </metadata>
  <trk>
    <name><![CDATA[Budapest]]></name>
    <extensions>
      <line xmlns="http://www.topografix.com/GPX/gpx_style/0/2">
        <color>0000FF</color>
        <width>4</width>
      </line>
    </extensions>
    <trkseg>
      <trkpt lat="47.53522" lon="19.05179">
        <ele>110.093739</ele>
        <time>2021-08-15T13:15:52.000Z</time>
      </trkpt>
      <trkpt lat="47.53538" lon="19.05199">
        <ele>110.093739</ele>
        <time>2021-08-15T13:15:53.000Z</time>
      </trkpt>
      <trkpt lat="47.53544" lon="19.0521">
        <ele>110.093739</ele>
        <time>2021-08-15T13:15:54.000Z</time>
      </trkpt>
      <trkpt lat="47.53549" lon="19.05223">
        <ele>110.093739</ele>
        <time>2021-08-15T13:15:58.000Z</time>
      </trkpt>
      <trkpt lat="47.5355" lon="19.05226">
        <ele>110.093739</ele>
        <time>2021-08-15T13:15:59.000Z</time>
      </trkpt>
      <trkpt lat="47.53558" lon="19.05243">
        <ele>110.093739</ele>
        <time>2021-08-15T13:16:04.000Z</time>
      </trkpt>
      <trkpt lat="47.53578" lon="19.05263">
        <ele>110.093739</ele>
        <time>2021-08-15T13:16:11.000Z</time>
      </trkpt>
      <trkpt lat="47.53596" lon="19.05273">
        <ele>110.545167</ele>
        <time>2021-08-15T13:16:18.000Z</time>
      </trkpt>
      <trkpt lat="47.53602" lon="19.05273">
        <ele>110.7929</ele>
        <time>2021-08-15T13:16:21.000Z</time>
      </trkpt>
      <trkpt lat="47.53608" lon="19.05276">
        <ele>111.04502</ele>
        <time>2021-08-15T13:16:23.000Z</time>
      </trkpt>
      <trkpt lat="47.53619" lon="19.05284">
        <ele>111.582767</ele>
        <time>2021-08-15T13:16:27.000Z</time>
      </trkpt>
      <trkpt lat="47.53628" lon="19.0529">
        <ele>111.988301</ele>
        <time>2021-08-15T13:16:30.000Z</time>
      </trkpt>
      <trkpt lat="47.53643" lon="19.05302">
        <ele>112.739922</ele>
        <time>2021-08-15T13:16:35.000Z</time>
      </trkpt>
      <trkpt lat="47.53657" lon="19.05313">
        <ele>113.422307</ele>
        <time>2021-08-15T13:16:40.000Z</time>
      </trkpt>
      <trkpt lat="47.53659" lon="19.05316">
        <ele>113.530339</ele>
        <time>2021-08-15T13:16:41.000Z</time>
      </trkpt>
      <trkpt lat="47.53667" lon="19.05321">
        <ele>113.892509</ele>
        <time>2021-08-15T13:16:44.000Z</time>
      </trkpt>
      <trkpt lat="47.53672" lon="19.05325">
        <ele>114.115678</ele>
        <time>2021-08-15T13:16:46.000Z</time>
      </trkpt>
      <trkpt lat="47.53674" lon="19.05327">
        <ele>114.239749</ele>
        <time>2021-08-15T13:16:47.000Z</time>
      </trkpt>
      <trkpt lat="47.53685" lon="19.05334">
        <ele>114.746256</ele>
        <time>2021-08-15T13:16:51.000Z</time>
      </trkpt>
      <trkpt lat="47.53695" lon="19.05342">
        <ele>115.224212</ele>
        <time>2021-08-15T13:16:55.000Z</time>
      </trkpt>
      <trkpt lat="47.53697" lon="19.05343">
        <ele>115.335484</ele>
        <time>2021-08-15T13:16:56.000Z</time>
      </trkpt>
      <trkpt lat="47.53703" lon="19.05348">
        <ele>115.618954</ele>
        <time>2021-08-15T13:16:59.000Z</time>
      </trkpt>
      <trkpt lat="47.53705" lon="19.0535">
        <ele>115.715938</ele>
        <time>2021-08-15T13:17:00.000Z</time>
      </trkpt>
      <trkpt lat="47.53709" lon="19.05352">
        <ele>115.897006</ele>
        <time>2021-08-15T13:17:02.000Z</time>
      </trkpt>
      <trkpt lat="47.53711" lon="19.05353">
        <ele>115.987548</ele>
        <time>2021-08-15T13:17:03.000Z</time>
      </trkpt>
      <trkpt lat="47.53717" lon="19.05358">
        <ele>116.278305</ele>
        <time>2021-08-15T13:17:06.000Z</time>
      </trkpt>
      <trkpt lat="47.53719" lon="19.05359">
        <ele>116.371492</ele>
        <time>2021-08-15T13:17:07.000Z</time>
      </trkpt>
      <trkpt lat="47.53726" lon="19.05365">
        <ele>116.726042</ele>
        <time>2021-08-15T13:17:11.000Z</time>
      </trkpt>
      <trkpt lat="47.53731" lon="19.05371">
        <ele>116.992321</ele>
        <time>2021-08-15T13:17:14.000Z</time>
      </trkpt>
      <trkpt lat="47.53732" lon="19.05378">
        <ele>117.172176</ele>
        <time>2021-08-15T13:17:16.000Z</time>
      </trkpt>
      <trkpt lat="47.53726" lon="19.05399">
        <ele>117.780987</ele>
        <time>2021-08-15T13:17:22.000Z</time>
      </trkpt>
      <trkpt lat="47.53721" lon="19.05434">
        <ele>117.974753</ele>
        <time>2021-08-15T13:17:29.000Z</time>
      </trkpt>
      <trkpt lat="47.53713" lon="19.05473">
        <ele>118.194772</ele>
        <time>2021-08-15T13:17:36.000Z</time>
      </trkpt>
      <trkpt lat="47.53699" lon="19.05534">
        <ele>118.547338</ele>
        <time>2021-08-15T13:17:47.000Z</time>
      </trkpt>
      <trkpt lat="47.53684" lon="19.05606">
        <ele>118.952352</ele>
        <time>2021-08-15T13:18:00.000Z</time>
      </trkpt>
      <trkpt lat="47.53676" lon="19.05644">
        <ele>119.168571</ele>
        <time>2021-08-15T13:18:07.000Z</time>
      </trkpt>
      <trkpt lat="47.53672" lon="19.05667">
        <ele>119.08492</ele>
        <time>2021-08-15T13:18:11.000Z</time>
      </trkpt>
      <trkpt lat="47.5366" lon="19.05729">
        <ele>118.579452</ele>
        <time>2021-08-15T13:18:21.000Z</time>
      </trkpt>
      <trkpt lat="47.5364" lon="19.05793">
        <ele>118.024423</ele>
        <time>2021-08-15T13:18:32.000Z</time>
      </trkpt>
      <trkpt lat="47.53639" lon="19.05799">
        <ele>117.972925</ele>
        <time>2021-08-15T13:18:33.000Z</time>
      </trkpt>
      <trkpt lat="47.53632" lon="19.05825">
        <ele>117.758113</ele>
        <time>2021-08-15T13:18:37.000Z</time>
      </trkpt>
      <trkpt lat="47.53627" lon="19.05844">
        <ele>117.597344</ele>
        <time>2021-08-15T13:18:40.000Z</time>
      </trkpt>
      <trkpt lat="47.53625" lon="19.05849">
        <ele>117.546742</ele>
        <time>2021-08-15T13:18:41.000Z</time>
      </trkpt>
      <trkpt lat="47.53621" lon="19.05859">
        <ele>117.458603</ele>
        <time>2021-08-15T13:18:43.000Z</time>
      </trkpt>
      <trkpt lat="47.53609" lon="19.05873">
        <ele>117.282391</ele>
        <time>2021-08-15T13:18:48.000Z</time>
      </trkpt>
      <trkpt lat="47.53608" lon="19.05891">
        <ele>117.140444</ele>
        <time>2021-08-15T13:18:52.000Z</time>
      </trkpt>
      <trkpt lat="47.53607" lon="19.05895">
        <ele>117.106887</ele>
        <time>2021-08-15T13:18:53.000Z</time>
      </trkpt>
      <trkpt lat="47.53601" lon="19.0592">
        <ele>116.972413</ele>
        <time>2021-08-15T13:18:58.000Z</time>
      </trkpt>
      <trkpt lat="47.53598" lon="19.05931">
        <ele>116.914472</ele>
        <time>2021-08-15T13:19:00.000Z</time>
      </trkpt>
      <trkpt lat="47.53592" lon="19.05959">
        <ele>116.765627</ele>
        <time>2021-08-15T13:19:05.000Z</time>
      </trkpt>
      <trkpt lat="47.5359" lon="19.0597">
        <ele>116.708935</ele>
        <time>2021-08-15T13:19:07.000Z</time>
      </trkpt>
      <trkpt lat="47.53583" lon="19.06006">
        <ele>116.52116</ele>
        <time>2021-08-15T13:19:14.000Z</time>
      </trkpt>
      <trkpt lat="47.5358" lon="19.06019">
        <ele>116.450215</ele>
        <time>2021-08-15T13:19:19.000Z</time>
      </trkpt>
      <trkpt lat="47.53579" lon="19.06023">
        <ele>116.427694</ele>
        <time>2021-08-15T13:19:21.000Z</time>
      </trkpt>
      <trkpt lat="47.53578" lon="19.0603">
        <ele>116.390739</ele>
        <time>2021-08-15T13:19:24.000Z</time>
      </trkpt>
      <trkpt lat="47.53573" lon="19.06049">
        <ele>116.292403</ele>
        <time>2021-08-15T13:19:31.000Z</time>
      </trkpt>
      <trkpt lat="47.53572" lon="19.06052">
        <ele>116.269791</ele>
        <time>2021-08-15T13:19:32.000Z</time>
      </trkpt>
      <trkpt lat="47.53564" lon="19.06082">
        <ele>116.106842</ele>
        <time>2021-08-15T13:19:38.000Z</time>
      </trkpt>
      <trkpt lat="47.53558" lon="19.0611">
        <ele>115.962361</ele>
        <time>2021-08-15T13:19:43.000Z</time>
      </trkpt>
      <trkpt lat="47.53557" lon="19.06114">
        <ele>115.94035</ele>
        <time>2021-08-15T13:19:44.000Z</time>
      </trkpt>
      <trkpt lat="47.53551" lon="19.06128">
        <ele>115.858867</ele>
        <time>2021-08-15T13:19:49.000Z</time>
      </trkpt>
      <trkpt lat="47.5355" lon="19.06129">
        <ele>115.849215</ele>
        <time>2021-08-15T13:19:50.000Z</time>
      </trkpt>
      <trkpt lat="47.53549" lon="19.0613">
        <ele>115.838445</ele>
        <time>2021-08-15T13:19:54.000Z</time>
      </trkpt>
      <trkpt lat="47.5355" lon="19.06128">
        <ele>115.826165</ele>
        <time>2021-08-15T13:20:02.000Z</time>
      </trkpt>
      <trkpt lat="47.5355" lon="19.06128">
        <ele>115.823136</ele>
        <time>2021-08-15T13:20:03.000Z</time>
      </trkpt>
      <trkpt lat="47.5355" lon="19.06127">
        <ele>115.815596</ele>
        <time>2021-08-15T13:20:06.000Z</time>
      </trkpt>
      <trkpt lat="47.53551" lon="19.06125">
        <ele>115.805108</ele>
        <time>2021-08-15T13:20:07.000Z</time>
      </trkpt>
      <trkpt lat="47.53552" lon="19.06122">
        <ele>115.787871</ele>
        <time>2021-08-15T13:20:09.000Z</time>
      </trkpt>
      <trkpt lat="47.53554" lon="19.06115">
        <ele>115.766834</ele>
        <time>2021-08-15T13:20:12.000Z</time>
      </trkpt>
      <trkpt lat="47.53556" lon="19.06108">
        <ele>115.766227</ele>
        <time>2021-08-15T13:20:14.000Z</time>
      </trkpt>
      <trkpt lat="47.5356" lon="19.06097">
        <ele>115.765183</ele>
        <time>2021-08-15T13:20:17.000Z</time>
      </trkpt>
      <trkpt lat="47.53561" lon="19.06095">
        <ele>115.764984</ele>
        <time>2021-08-15T13:20:18.000Z</time>
      </trkpt>
      <trkpt lat="47.53561" lon="19.06095">
        <ele>115.76497</ele>
        <time>2021-08-15T13:20:20.000Z</time>
      </trkpt>
      <trkpt lat="47.53558" lon="19.06108">
        <ele>115.763819</ele>
        <time>2021-08-15T13:20:25.000Z</time>
      </trkpt>
      <trkpt lat="47.53556" lon="19.06113">
        <ele>115.763393</ele>
        <time>2021-08-15T13:20:26.000Z</time>
      </trkpt>
      <trkpt lat="47.53546" lon="19.06136">
        <ele>115.761116</ele>
        <time>2021-08-15T13:20:31.000Z</time>
      </trkpt>
      <trkpt lat="47.53532" lon="19.06171">
        <ele>115.757794</ele>
        <time>2021-08-15T13:20:37.000Z</time>
      </trkpt>
      <trkpt lat="47.53531" lon="19.06176">
        <ele>115.75735</ele>
        <time>2021-08-15T13:20:38.000Z</time>
      </trkpt>
      <trkpt lat="47.53528" lon="19.06188">
        <ele>115.756326</ele>
        <time>2021-08-15T13:20:40.000Z</time>
      </trkpt>
      <trkpt lat="47.53525" lon="19.06202">
        <ele>115.755187</ele>
        <time>2021-08-15T13:20:42.000Z</time>
      </trkpt>
      <trkpt lat="47.53523" lon="19.06207">
        <ele>115.754687</ele>
        <time>2021-08-15T13:20:43.000Z</time>
      </trkpt>
      <trkpt lat="47.5352" lon="19.0622">
        <ele>115.753525</ele>
        <time>2021-08-15T13:20:45.000Z</time>
      </trkpt>
      <trkpt lat="47.53513" lon="19.06252">
        <ele>115.750837</ele>
        <time>2021-08-15T13:20:50.000Z</time>
      </trkpt>
      <trkpt lat="47.5351" lon="19.06263">
        <ele>115.749825</ele>
        <time>2021-08-15T13:20:52.000Z</time>
      </trkpt>
      <trkpt lat="47.53502" lon="19.06281">
        <ele>115.748095</ele>
        <time>2021-08-15T13:20:55.000Z</time>
      </trkpt>
      <trkpt lat="47.53477" lon="19.06329">
        <ele>115.548195</ele>
        <time>2021-08-15T13:21:03.000Z</time>
      </trkpt>
      <trkpt lat="47.53441" lon="19.06383">
        <ele>115.013906</ele>
        <time>2021-08-15T13:21:13.000Z</time>
      </trkpt>
      <trkpt lat="47.53431" lon="19.06399">
        <ele>114.854601</ele>
        <time>2021-08-15T13:21:16.000Z</time>
      </trkpt>
      <trkpt lat="47.53413" lon="19.0642">
        <ele>114.618052</ele>
        <time>2021-08-15T13:21:20.000Z</time>
      </trkpt>
      <trkpt lat="47.53379" lon="19.06466">
        <ele>114.134103</ele>
        <time>2021-08-15T13:21:28.000Z</time>
      </trkpt>
      <trkpt lat="47.53375" lon="19.06472">
        <ele>114.074369</ele>
        <time>2021-08-15T13:21:29.000Z</time>
      </trkpt>
      <trkpt lat="47.53346" lon="19.0651">
        <ele>113.602349</ele>
        <time>2021-08-15T13:21:36.000Z</time>
      </trkpt>
      <trkpt lat="47.53341" lon="19.06515">
        <ele>113.519036</ele>
        <time>2021-08-15T13:21:37.000Z</time>
      </trkpt>
      <trkpt lat="47.53309" lon="19.06554">
        <ele>112.936324</ele>
        <time>2021-08-15T13:21:44.000Z</time>
      </trkpt>
      <trkpt lat="47.53305" lon="19.0656">
        <ele>112.858426</ele>
        <time>2021-08-15T13:21:45.000Z</time>
      </trkpt>
      <trkpt lat="47.53283" lon="19.06592">
        <ele>112.424879</ele>
        <time>2021-08-15T13:21:51.000Z</time>
      </trkpt>
      <trkpt lat="47.53266" lon="19.06613">
        <ele>112.11651</ele>
        <time>2021-08-15T13:21:57.000Z</time>
      </trkpt>
      <trkpt lat="47.53251" lon="19.06627">
        <ele>111.87156</ele>
        <time>2021-08-15T13:22:02.000Z</time>
      </trkpt>
      <trkpt lat="47.53248" lon="19.0663">
        <ele>111.824763</ele>
        <time>2021-08-15T13:22:03.000Z</time>
      </trkpt>
      <trkpt lat="47.53242" lon="19.06634">
        <ele>111.723453</ele>
        <time>2021-08-15T13:22:06.000Z</time>
      </trkpt>
      <trkpt lat="47.53239" lon="19.06635">
        <ele>111.687981</ele>
        <time>2021-08-15T13:22:08.000Z</time>
      </trkpt>
      <trkpt lat="47.53238" lon="19.06634">
        <ele>111.672116</ele>
        <time>2021-08-15T13:22:13.000Z</time>
      </trkpt>
      <trkpt lat="47.53234" lon="19.06632">
        <ele>111.604696</ele>
        <time>2021-08-15T13:22:16.000Z</time>
      </trkpt>
      <trkpt lat="47.53229" lon="19.06631">
        <ele>111.542361</ele>
        <time>2021-08-15T13:22:18.000Z</time>
      </trkpt>
      <trkpt lat="47.5321" lon="19.06622">
        <ele>111.323009</ele>
        <time>2021-08-15T13:22:24.000Z</time>
      </trkpt>
      <trkpt lat="47.53199" lon="19.06617">
        <ele>111.291863</ele>
        <time>2021-08-15T13:22:27.000Z</time>
      </trkpt>
      <trkpt lat="47.53191" lon="19.06612">
        <ele>111.265987</ele>
        <time>2021-08-15T13:22:30.000Z</time>
      </trkpt>
      <trkpt lat="47.53189" lon="19.06609">
        <ele>111.257889</ele>
        <time>2021-08-15T13:22:31.000Z</time>
      </trkpt>
      <trkpt lat="47.53187" lon="19.06606">
        <ele>111.250411</ele>
        <time>2021-08-15T13:22:32.000Z</time>
      </trkpt>
      <trkpt lat="47.53183" lon="19.06601">
        <ele>111.235584</ele>
        <time>2021-08-15T13:22:34.000Z</time>
      </trkpt>
      <trkpt lat="47.53177" lon="19.06592">
        <ele>111.212074</ele>
        <time>2021-08-15T13:22:38.000Z</time>
      </trkpt>
      <trkpt lat="47.53175" lon="19.06592">
        <ele>111.204978</ele>
        <time>2021-08-15T13:22:39.000Z</time>
      </trkpt>
      <trkpt lat="47.53168" lon="19.06596">
        <ele>111.184068</ele>
        <time>2021-08-15T13:22:43.000Z</time>
      </trkpt>
      <trkpt lat="47.53166" lon="19.06594">
        <ele>111.177181</ele>
        <time>2021-08-15T13:22:44.000Z</time>
      </trkpt>
      <trkpt lat="47.53159" lon="19.06592">
        <ele>111.157015</ele>
        <time>2021-08-15T13:22:47.000Z</time>
      </trkpt>
      <trkpt lat="47.53158" lon="19.06592">
        <ele>111.155816</ele>
        <time>2021-08-15T13:22:49.000Z</time>
      </trkpt>
      <trkpt lat="47.53158" lon="19.06595">
        <ele>111.150642</ele>
        <time>2021-08-15T13:22:57.000Z</time>
      </trkpt>
      <trkpt lat="47.53158" lon="19.06598">
        <ele>111.144216</ele>
        <time>2021-08-15T13:22:58.000Z</time>
      </trkpt>
      <trkpt lat="47.53159" lon="19.06606">
        <ele>111.130086</ele>
        <time>2021-08-15T13:23:00.000Z</time>
      </trkpt>
      <trkpt lat="47.5316" lon="19.06609">
        <ele>111.122728</ele>
        <time>2021-08-15T13:23:02.000Z</time>
      </trkpt>
      <trkpt lat="47.53161" lon="19.06615">
        <ele>111.110721</ele>
        <time>2021-08-15T13:23:06.000Z</time>
      </trkpt>
      <trkpt lat="47.53142" lon="19.06655">
        <ele>111.016521</ele>
        <time>2021-08-15T13:23:49.000Z</time>
      </trkpt>
      <trkpt lat="47.53148" lon="19.06658">
        <ele>110.999083</ele>
        <time>2021-08-15T13:23:50.000Z</time>
      </trkpt>
      <trkpt lat="47.53143" lon="19.06693">
        <ele>110.93096</ele>
        <time>2021-08-15T13:23:57.000Z</time>
      </trkpt>
      <trkpt lat="47.53128" lon="19.06751">
        <ele>110.857549</ele>
        <time>2021-08-15T13:24:07.000Z</time>
      </trkpt>
      <trkpt lat="47.53119" lon="19.06799">
        <ele>111.04618</ele>
        <time>2021-08-15T13:24:16.000Z</time>
      </trkpt>
      <trkpt lat="47.53118" lon="19.06801">
        <ele>111.054372</ele>
        <time>2021-08-15T13:24:17.000Z</time>
      </trkpt>
      <trkpt lat="47.53118" lon="19.06803">
        <ele>111.063775</ele>
        <time>2021-08-15T13:24:19.000Z</time>
      </trkpt>
      <trkpt lat="47.53117" lon="19.06813">
        <ele>111.101994</ele>
        <time>2021-08-15T13:24:22.000Z</time>
      </trkpt>
      <trkpt lat="47.53118" lon="19.06817">
        <ele>111.118771</ele>
        <time>2021-08-15T13:24:23.000Z</time>
      </trkpt>
      <trkpt lat="47.53127" lon="19.06832">
        <ele>111.19664</ele>
        <time>2021-08-15T13:24:28.000Z</time>
      </trkpt>
      <trkpt lat="47.53127" lon="19.06839">
        <ele>111.221043</ele>
        <time>2021-08-15T13:24:30.000Z</time>
      </trkpt>
      <trkpt lat="47.53126" lon="19.06842">
        <ele>111.236603</ele>
        <time>2021-08-15T13:24:31.000Z</time>
      </trkpt>
      <trkpt lat="47.53117" lon="19.06858">
        <ele>111.314859</ele>
        <time>2021-08-15T13:24:35.000Z</time>
      </trkpt>
      <trkpt lat="47.53112" lon="19.06867">
        <ele>111.355013</ele>
        <time>2021-08-15T13:24:37.000Z</time>
      </trkpt>
      <trkpt lat="47.5309" lon="19.06901">
        <ele>111.531934</ele>
        <time>2021-08-15T13:24:46.000Z</time>
      </trkpt>
      <trkpt lat="47.53066" lon="19.06932">
        <ele>111.710084</ele>
        <time>2021-08-15T13:24:54.000Z</time>
      </trkpt>
      <trkpt lat="47.5304" lon="19.0697">
        <ele>111.916933</ele>
        <time>2021-08-15T13:25:04.000Z</time>
      </trkpt>
      <trkpt lat="47.53019" lon="19.07002">
        <ele>112.081361</ele>
        <time>2021-08-15T13:25:12.000Z</time>
      </trkpt>
      <trkpt lat="47.53005" lon="19.07025">
        <ele>112.200721</ele>
        <time>2021-08-15T13:25:17.000Z</time>
      </trkpt>
      <trkpt lat="47.53001" lon="19.07035">
        <ele>112.245691</ele>
        <time>2021-08-15T13:25:19.000Z</time>
      </trkpt>
      <trkpt lat="47.52992" lon="19.07061">
        <ele>112.356459</ele>
        <time>2021-08-15T13:25:24.000Z</time>
      </trkpt>
      <trkpt lat="47.5299" lon="19.07066">
        <ele>112.378139</ele>
        <time>2021-08-15T13:25:25.000Z</time>
      </trkpt>
      <trkpt lat="47.52988" lon="19.07071">
        <ele>112.398638</ele>
        <time>2021-08-15T13:25:26.000Z</time>
      </trkpt>
      <trkpt lat="47.52982" lon="19.07078">
        <ele>112.441732</ele>
        <time>2021-08-15T13:25:28.000Z</time>
      </trkpt>
      <trkpt lat="47.52962" lon="19.07107">
        <ele>112.598873</ele>
        <time>2021-08-15T13:25:35.000Z</time>
      </trkpt>
      <trkpt lat="47.52953" lon="19.07119">
        <ele>112.667257</ele>
        <time>2021-08-15T13:25:38.000Z</time>
      </trkpt>
      <trkpt lat="47.52947" lon="19.07127">
        <ele>112.714172</ele>
        <time>2021-08-15T13:25:40.000Z</time>
      </trkpt>
      <trkpt lat="47.52942" lon="19.07138">
        <ele>112.763303</ele>
        <time>2021-08-15T13:25:42.000Z</time>
      </trkpt>
      <trkpt lat="47.52935" lon="19.07146">
        <ele>112.815323</ele>
        <time>2021-08-15T13:25:44.000Z</time>
      </trkpt>
      <trkpt lat="47.52932" lon="19.07151">
        <ele>112.839098</ele>
        <time>2021-08-15T13:25:45.000Z</time>
      </trkpt>
      <trkpt lat="47.52915" lon="19.0718">
        <ele>112.885476</ele>
        <time>2021-08-15T13:25:51.000Z</time>
      </trkpt>
      <trkpt lat="47.5291" lon="19.0719">
        <ele>112.899946</ele>
        <time>2021-08-15T13:25:53.000Z</time>
      </trkpt>
      <trkpt lat="47.52897" lon="19.07216">
        <ele>112.939603</ele>
        <time>2021-08-15T13:25:58.000Z</time>
      </trkpt>
      <trkpt lat="47.52875" lon="19.07254">
        <ele>112.998713</ele>
        <time>2021-08-15T13:26:05.000Z</time>
      </trkpt>
      <trkpt lat="47.52852" lon="19.07291">
        <ele>113.059463</ele>
        <time>2021-08-15T13:26:12.000Z</time>
      </trkpt>
      <trkpt lat="47.52821" lon="19.07338">
        <ele>113.138319</ele>
        <time>2021-08-15T13:26:21.000Z</time>
      </trkpt>
      <trkpt lat="47.52798" lon="19.07375">
        <ele>113.122356</ele>
        <time>2021-08-15T13:26:28.000Z</time>
      </trkpt>
      <trkpt lat="47.52795" lon="19.0738">
        <ele>113.114404</ele>
        <time>2021-08-15T13:26:29.000Z</time>
      </trkpt>
      <trkpt lat="47.52775" lon="19.07412">
        <ele>113.064944</ele>
        <time>2021-08-15T13:26:35.000Z</time>
      </trkpt>
      <trkpt lat="47.52765" lon="19.07429">
        <ele>113.040353</ele>
        <time>2021-08-15T13:26:38.000Z</time>
      </trkpt>
      <trkpt lat="47.52739" lon="19.07472">
        <ele>112.97435</ele>
        <time>2021-08-15T13:26:46.000Z</time>
      </trkpt>
      <trkpt lat="47.52732" lon="19.07482">
        <ele>112.958442</ele>
        <time>2021-08-15T13:26:48.000Z</time>
      </trkpt>
      <trkpt lat="47.52718" lon="19.07499">
        <ele>112.927455</ele>
        <time>2021-08-15T13:26:52.000Z</time>
      </trkpt>
      <trkpt lat="47.52695" lon="19.07533">
        <ele>112.873257</ele>
        <time>2021-08-15T13:26:59.000Z</time>
      </trkpt>
      <trkpt lat="47.5269" lon="19.07542">
        <ele>112.85952</ele>
        <time>2021-08-15T13:27:01.000Z</time>
      </trkpt>
      <trkpt lat="47.52683" lon="19.07557">
        <ele>112.834204</ele>
        <time>2021-08-15T13:27:04.000Z</time>
      </trkpt>
      <trkpt lat="47.52681" lon="19.07561">
        <ele>112.826583</ele>
        <time>2021-08-15T13:27:05.000Z</time>
      </trkpt>
      <trkpt lat="47.52679" lon="19.07566">
        <ele>112.818408</ele>
        <time>2021-08-15T13:27:06.000Z</time>
      </trkpt>
      <trkpt lat="47.52672" lon="19.07579">
        <ele>112.794281</ele>
        <time>2021-08-15T13:27:09.000Z</time>
      </trkpt>
      <trkpt lat="47.5265" lon="19.0761">
        <ele>112.730322</ele>
        <time>2021-08-15T13:27:16.000Z</time>
      </trkpt>
      <trkpt lat="47.52634" lon="19.07632">
        <ele>112.685674</ele>
        <time>2021-08-15T13:27:20.000Z</time>
      </trkpt>
      <trkpt lat="47.52622" lon="19.07652">
        <ele>112.645866</ele>
        <time>2021-08-15T13:27:24.000Z</time>
      </trkpt>
      <trkpt lat="47.52609" lon="19.07674">
        <ele>112.604071</ele>
        <time>2021-08-15T13:27:28.000Z</time>
      </trkpt>
      <trkpt lat="47.52599" lon="19.07689">
        <ele>112.57467</ele>
        <time>2021-08-15T13:27:31.000Z</time>
      </trkpt>
      <trkpt lat="47.52596" lon="19.07694">
        <ele>112.56573</ele>
        <time>2021-08-15T13:27:32.000Z</time>
      </trkpt>
      <trkpt lat="47.52592" lon="19.07698">
        <ele>112.555256</ele>
        <time>2021-08-15T13:27:33.000Z</time>
      </trkpt>
      <trkpt lat="47.52582" lon="19.07712">
        <ele>112.524644</ele>
        <time>2021-08-15T13:27:36.000Z</time>
      </trkpt>
      <trkpt lat="47.52579" lon="19.07717">
        <ele>112.515454</ele>
        <time>2021-08-15T13:27:37.000Z</time>
      </trkpt>
      <trkpt lat="47.52559" lon="19.07751">
        <ele>112.48246</ele>
        <time>2021-08-15T13:27:44.000Z</time>
      </trkpt>
      <trkpt lat="47.5255" lon="19.07757">
        <ele>112.486854</ele>
        <time>2021-08-15T13:27:47.000Z</time>
      </trkpt>
      <trkpt lat="47.52547" lon="19.0776">
        <ele>112.488685</ele>
        <time>2021-08-15T13:27:48.000Z</time>
      </trkpt>
      <trkpt lat="47.52532" lon="19.07783">
        <ele>112.498189</ele>
        <time>2021-08-15T13:27:53.000Z</time>
      </trkpt>
      <trkpt lat="47.52531" lon="19.07789">
        <ele>112.499995</ele>
        <time>2021-08-15T13:27:54.000Z</time>
      </trkpt>
      <trkpt lat="47.52529" lon="19.07797">
        <ele>112.502781</ele>
        <time>2021-08-15T13:27:56.000Z</time>
      </trkpt>
      <trkpt lat="47.52524" lon="19.07806">
        <ele>112.506174</ele>
        <time>2021-08-15T13:27:58.000Z</time>
      </trkpt>
      <trkpt lat="47.52504" lon="19.07839">
        <ele>112.519581</ele>
        <time>2021-08-15T13:28:05.000Z</time>
      </trkpt>
      <trkpt lat="47.52501" lon="19.07844">
        <ele>112.52146</ele>
        <time>2021-08-15T13:28:06.000Z</time>
      </trkpt>
      <trkpt lat="47.52496" lon="19.07853">
        <ele>112.524963</ele>
        <time>2021-08-15T13:28:08.000Z</time>
      </trkpt>
      <trkpt lat="47.52492" lon="19.07863">
        <ele>112.528537</ele>
        <time>2021-08-15T13:28:10.000Z</time>
      </trkpt>
      <trkpt lat="47.52484" lon="19.07872">
        <ele>112.532851</ele>
        <time>2021-08-15T13:28:12.000Z</time>
      </trkpt>
      <trkpt lat="47.52473" lon="19.07885">
        <ele>112.539084</ele>
        <time>2021-08-15T13:28:15.000Z</time>
      </trkpt>
      <trkpt lat="47.5246" lon="19.07906">
        <ele>112.547915</ele>
        <time>2021-08-15T13:28:20.000Z</time>
      </trkpt>
      <trkpt lat="47.52441" lon="19.07937">
        <ele>112.579014</ele>
        <time>2021-08-15T13:28:28.000Z</time>
      </trkpt>
      <trkpt lat="47.52427" lon="19.0796">
        <ele>112.648411</ele>
        <time>2021-08-15T13:28:34.000Z</time>
      </trkpt>
      <trkpt lat="47.52416" lon="19.07977">
        <ele>112.701861</ele>
        <time>2021-08-15T13:28:38.000Z</time>
      </trkpt>
      <trkpt lat="47.52402" lon="19.08">
        <ele>112.769969</ele>
        <time>2021-08-15T13:28:43.000Z</time>
      </trkpt>
      <trkpt lat="47.5238" lon="19.08034">
        <ele>112.875678</ele>
        <time>2021-08-15T13:28:51.000Z</time>
      </trkpt>
      <trkpt lat="47.5236" lon="19.08066">
        <ele>112.973505</ele>
        <time>2021-08-15T13:28:59.000Z</time>
      </trkpt>
      <trkpt lat="47.52355" lon="19.08073">
        <ele>112.997121</ele>
        <time>2021-08-15T13:29:01.000Z</time>
      </trkpt>
      <trkpt lat="47.5234" lon="19.08084">
        <ele>113.052168</ele>
        <time>2021-08-15T13:29:06.000Z</time>
      </trkpt>
      <trkpt lat="47.52332" lon="19.08085">
        <ele>113.078748</ele>
        <time>2021-08-15T13:29:09.000Z</time>
      </trkpt>
      <trkpt lat="47.5233" lon="19.08085">
        <ele>113.087421</ele>
        <time>2021-08-15T13:29:11.000Z</time>
      </trkpt>
      <trkpt lat="47.5233" lon="19.08086">
        <ele>113.089974</ele>
        <time>2021-08-15T13:29:14.000Z</time>
      </trkpt>
      <trkpt lat="47.5233" lon="19.08086">
        <ele>113.089974</ele>
        <time>2021-08-15T13:29:15.000Z</time>
      </trkpt>
      <trkpt lat="47.5233" lon="19.08086">
        <ele>113.089974</ele>
        <time>2021-08-15T13:29:24.000Z</time>
      </trkpt>
      <trkpt lat="47.5233" lon="19.08086">
        <ele>113.089974</ele>
        <time>2021-08-15T13:29:31.000Z</time>
      </trkpt>
      <trkpt lat="47.5233" lon="19.08086">
        <ele>113.089974</ele>
        <time>2021-08-15T13:29:36.000Z</time>
      </trkpt>
      <trkpt lat="47.5233" lon="19.08087">
        <ele>113.091711</ele>
        <time>2021-08-15T13:30:16.000Z</time>
      </trkpt>
      <trkpt lat="47.5233" lon="19.08087">
        <ele>113.091711</ele>
        <time>2021-08-15T13:30:28.000Z</time>
      </trkpt>
      <trkpt lat="47.5233" lon="19.08087">
        <ele>113.091711</ele>
        <time>2021-08-15T13:30:34.000Z</time>
      </trkpt>
      <trkpt lat="47.5233" lon="19.08087">
        <ele>113.091711</ele>
        <time>2021-08-15T13:30:59.000Z</time>
      </trkpt>
      <trkpt lat="47.52329" lon="19.08088">
        <ele>113.09669</ele>
        <time>2021-08-15T13:31:16.000Z</time>
      </trkpt>
      <trkpt lat="47.52323" lon="19.08087">
        <ele>113.113968</ele>
        <time>2021-08-15T13:31:18.000Z</time>
      </trkpt>
      <trkpt lat="47.52311" lon="19.081">
        <ele>113.155946</ele>
        <time>2021-08-15T13:31:23.000Z</time>
      </trkpt>
      <trkpt lat="47.52294" lon="19.08133">
        <ele>113.172545</ele>
        <time>2021-08-15T13:31:30.000Z</time>
      </trkpt>
      <trkpt lat="47.5229" lon="19.08146">
        <ele>113.178085</ele>
        <time>2021-08-15T13:31:32.000Z</time>
      </trkpt>
      <trkpt lat="47.52285" lon="19.08158">
        <ele>113.183432</ele>
        <time>2021-08-15T13:31:34.000Z</time>
      </trkpt>
      <trkpt lat="47.52283" lon="19.08164">
        <ele>113.186342</ele>
        <time>2021-08-15T13:31:35.000Z</time>
      </trkpt>
      <trkpt lat="47.52271" lon="19.08187">
        <ele>113.197728</ele>
        <time>2021-08-15T13:31:39.000Z</time>
      </trkpt>
      <trkpt lat="47.52264" lon="19.08203">
        <ele>113.205281</ele>
        <time>2021-08-15T13:31:42.000Z</time>
      </trkpt>
      <trkpt lat="47.52261" lon="19.08208">
        <ele>113.207764</ele>
        <time>2021-08-15T13:31:43.000Z</time>
      </trkpt>
      <trkpt lat="47.52242" lon="19.08231">
        <ele>113.222055</ele>
        <time>2021-08-15T13:31:50.000Z</time>
      </trkpt>
      <trkpt lat="47.5224" lon="19.08232">
        <ele>113.223579</ele>
        <time>2021-08-15T13:31:54.000Z</time>
      </trkpt>
      <trkpt lat="47.5224" lon="19.08232">
        <ele>113.223579</ele>
        <time>2021-08-15T13:32:05.000Z</time>
      </trkpt>
      <trkpt lat="47.5224" lon="19.08232">
        <ele>113.223579</ele>
        <time>2021-08-15T13:32:07.000Z</time>
      </trkpt>
      <trkpt lat="47.5224" lon="19.08229">
        <ele>113.224488</ele>
        <time>2021-08-15T13:32:11.000Z</time>
      </trkpt>
      <trkpt lat="47.5224" lon="19.08223">
        <ele>113.227053</ele>
        <time>2021-08-15T13:32:13.000Z</time>
      </trkpt>
      <trkpt lat="47.52236" lon="19.08202">
        <ele>113.235619</ele>
        <time>2021-08-15T13:32:19.000Z</time>
      </trkpt>
      <trkpt lat="47.52231" lon="19.08186">
        <ele>113.242634</ele>
        <time>2021-08-15T13:32:24.000Z</time>
      </trkpt>
      <trkpt lat="47.52221" lon="19.0815">
        <ele>113.257743</ele>
        <time>2021-08-15T13:32:30.000Z</time>
      </trkpt>
      <trkpt lat="47.52212" lon="19.08111">
        <ele>113.232249</ele>
        <time>2021-08-15T13:32:36.000Z</time>
      </trkpt>
      <trkpt lat="47.5221" lon="19.08104">
        <ele>113.227085</ele>
        <time>2021-08-15T13:32:37.000Z</time>
      </trkpt>
      <trkpt lat="47.52207" lon="19.08092">
        <ele>113.21753</ele>
        <time>2021-08-15T13:32:39.000Z</time>
      </trkpt>
      <trkpt lat="47.52207" lon="19.08077">
        <ele>113.207006</ele>
        <time>2021-08-15T13:32:42.000Z</time>
      </trkpt>
      <trkpt lat="47.52207" lon="19.0807">
        <ele>113.201779</ele>
        <time>2021-08-15T13:32:46.000Z</time>
      </trkpt>
      <trkpt lat="47.52205" lon="19.08054">
        <ele>113.189974</ele>
        <time>2021-08-15T13:32:51.000Z</time>
      </trkpt>
      <trkpt lat="47.52199" lon="19.08038">
        <ele>113.176171</ele>
        <time>2021-08-15T13:32:57.000Z</time>
      </trkpt>
      <trkpt lat="47.52198" lon="19.08038">
        <ele>113.175443</ele>
        <time>2021-08-15T13:33:03.000Z</time>
      </trkpt>
      <trkpt lat="47.52197" lon="19.08035">
        <ele>113.172436</ele>
        <time>2021-08-15T13:33:05.000Z</time>
      </trkpt>
      <trkpt lat="47.52195" lon="19.08022">
        <ele>113.162644</ele>
        <time>2021-08-15T13:33:08.000Z</time>
      </trkpt>
      <trkpt lat="47.52192" lon="19.08013">
        <ele>113.155521</ele>
        <time>2021-08-15T13:33:10.000Z</time>
      </trkpt>
      <trkpt lat="47.52189" lon="19.0801">
        <ele>113.151841</ele>
        <time>2021-08-15T13:33:11.000Z</time>
      </trkpt>
      <trkpt lat="47.5218" lon="19.08002">
        <ele>113.140515</ele>
        <time>2021-08-15T13:33:14.000Z</time>
      </trkpt>
      <trkpt lat="47.52177" lon="19.07992">
        <ele>113.132553</ele>
        <time>2021-08-15T13:33:16.000Z</time>
      </trkpt>
      <trkpt lat="47.52168" lon="19.07969">
        <ele>113.113637</ele>
        <time>2021-08-15T13:33:20.000Z</time>
      </trkpt>
      <trkpt lat="47.52152" lon="19.07929">
        <ele>113.079644</ele>
        <time>2021-08-15T13:33:27.000Z</time>
      </trkpt>
      <trkpt lat="47.5215" lon="19.07923">
        <ele>113.074834</ele>
        <time>2021-08-15T13:33:28.000Z</time>
      </trkpt>
      <trkpt lat="47.52147" lon="19.07918">
        <ele>113.069567</ele>
        <time>2021-08-15T13:33:29.000Z</time>
      </trkpt>
      <trkpt lat="47.52135" lon="19.07896">
        <ele>113.022033</ele>
        <time>2021-08-15T13:33:33.000Z</time>
      </trkpt>
      <trkpt lat="47.52128" lon="19.07879">
        <ele>112.983498</ele>
        <time>2021-08-15T13:33:36.000Z</time>
      </trkpt>
      <trkpt lat="47.52111" lon="19.07838">
        <ele>112.892395</ele>
        <time>2021-08-15T13:33:43.000Z</time>
      </trkpt>
      <trkpt lat="47.52091" lon="19.0779">
        <ele>112.783253</ele>
        <time>2021-08-15T13:33:51.000Z</time>
      </trkpt>
      <trkpt lat="47.52087" lon="19.07778">
        <ele>112.758254</ele>
        <time>2021-08-15T13:33:53.000Z</time>
      </trkpt>
      <trkpt lat="47.52082" lon="19.07761">
        <ele>112.722218</ele>
        <time>2021-08-15T13:33:56.000Z</time>
      </trkpt>
      <trkpt lat="47.52074" lon="19.07743">
        <ele>112.683227</ele>
        <time>2021-08-15T13:33:59.000Z</time>
      </trkpt>
      <trkpt lat="47.52069" lon="19.07732">
        <ele>112.657072</ele>
        <time>2021-08-15T13:34:01.000Z</time>
      </trkpt>
      <trkpt lat="47.52063" lon="19.07714">
        <ele>112.618408</ele>
        <time>2021-08-15T13:34:04.000Z</time>
      </trkpt>
      <trkpt lat="47.5206" lon="19.07709">
        <ele>112.605411</ele>
        <time>2021-08-15T13:34:05.000Z</time>
      </trkpt>
      <trkpt lat="47.52035" lon="19.07653">
        <ele>112.521906</ele>
        <time>2021-08-15T13:34:14.000Z</time>
      </trkpt>
      <trkpt lat="47.52013" lon="19.07602">
        <ele>112.471354</ele>
        <time>2021-08-15T13:34:23.000Z</time>
      </trkpt>
      <trkpt lat="47.51999" lon="19.07568">
        <ele>112.43785</ele>
        <time>2021-08-15T13:34:29.000Z</time>
      </trkpt>
      <trkpt lat="47.51994" lon="19.07556">
        <ele>112.426322</ele>
        <time>2021-08-15T13:34:31.000Z</time>
      </trkpt>
      <trkpt lat="47.5197" lon="19.07496">
        <ele>112.367198</ele>
        <time>2021-08-15T13:34:41.000Z</time>
      </trkpt>
      <trkpt lat="47.51957" lon="19.07463">
        <ele>112.3355</ele>
        <time>2021-08-15T13:34:46.000Z</time>
      </trkpt>
      <trkpt lat="47.51943" lon="19.0743">
        <ele>112.12321</ele>
        <time>2021-08-15T13:34:52.000Z</time>
      </trkpt>
      <trkpt lat="47.51937" lon="19.07414">
        <ele>112.017366</ele>
        <time>2021-08-15T13:34:55.000Z</time>
      </trkpt>
      <trkpt lat="47.51935" lon="19.07409">
        <ele>111.982771</ele>
        <time>2021-08-15T13:34:56.000Z</time>
      </trkpt>
      <trkpt lat="47.51931" lon="19.07398">
        <ele>111.911143</ele>
        <time>2021-08-15T13:34:58.000Z</time>
      </trkpt>
      <trkpt lat="47.51919" lon="19.0737">
        <ele>111.721498</ele>
        <time>2021-08-15T13:35:03.000Z</time>
      </trkpt>
      <trkpt lat="47.51907" lon="19.07339">
        <ele>111.512803</ele>
        <time>2021-08-15T13:35:09.000Z</time>
      </trkpt>
      <trkpt lat="47.51897" lon="19.07319">
        <ele>111.375205</ele>
        <time>2021-08-15T13:35:14.000Z</time>
      </trkpt>
      <trkpt lat="47.51893" lon="19.07309">
        <ele>111.310845</ele>
        <time>2021-08-15T13:35:16.000Z</time>
      </trkpt>
      <trkpt lat="47.51885" lon="19.07288">
        <ele>111.170686</ele>
        <time>2021-08-15T13:35:20.000Z</time>
      </trkpt>
      <trkpt lat="47.5188" lon="19.07279">
        <ele>111.103494</ele>
        <time>2021-08-15T13:35:22.000Z</time>
      </trkpt>
      <trkpt lat="47.51867" lon="19.0725">
        <ele>110.905915</ele>
        <time>2021-08-15T13:35:29.000Z</time>
      </trkpt>
      <trkpt lat="47.51864" lon="19.07248">
        <ele>110.875438</ele>
        <time>2021-08-15T13:35:31.000Z</time>
      </trkpt>
      <trkpt lat="47.51862" lon="19.07249">
        <ele>110.85423</ele>
        <time>2021-08-15T13:35:32.000Z</time>
      </trkpt>
      <trkpt lat="47.51856" lon="19.07254">
        <ele>110.811797</ele>
        <time>2021-08-15T13:35:34.000Z</time>
      </trkpt>
      <trkpt lat="47.51849" lon="19.07265">
        <ele>110.911566</ele>
        <time>2021-08-15T13:35:37.000Z</time>
      </trkpt>
      <trkpt lat="47.51835" lon="19.07281">
        <ele>111.085734</ele>
        <time>2021-08-15T13:35:43.000Z</time>
      </trkpt>
      <trkpt lat="47.51783" lon="19.0734">
        <ele>111.708439</ele>
        <time>2021-08-15T13:36:03.000Z</time>
      </trkpt>
      <trkpt lat="47.51774" lon="19.07343">
        <ele>111.798504</ele>
        <time>2021-08-15T13:36:06.000Z</time>
      </trkpt>
      <trkpt lat="47.51759" lon="19.07356">
        <ele>111.967982</ele>
        <time>2021-08-15T13:36:11.000Z</time>
      </trkpt>
      <trkpt lat="47.51756" lon="19.0736">
        <ele>112.009206</ele>
        <time>2021-08-15T13:36:12.000Z</time>
      </trkpt>
      <trkpt lat="47.5174" lon="19.07382">
        <ele>112.21727</ele>
        <time>2021-08-15T13:36:18.000Z</time>
      </trkpt>
      <trkpt lat="47.51726" lon="19.07398">
        <ele>112.38675</ele>
        <time>2021-08-15T13:36:23.000Z</time>
      </trkpt>
      <trkpt lat="47.51721" lon="19.07404">
        <ele>112.452661</ele>
        <time>2021-08-15T13:36:25.000Z</time>
      </trkpt>
      <trkpt lat="47.51715" lon="19.07411">
        <ele>112.518478</ele>
        <time>2021-08-15T13:36:27.000Z</time>
      </trkpt>
      <trkpt lat="47.51698" lon="19.07428">
        <ele>112.634659</ele>
        <time>2021-08-15T13:36:33.000Z</time>
      </trkpt>
      <trkpt lat="47.51696" lon="19.07431">
        <ele>112.65229</ele>
        <time>2021-08-15T13:36:34.000Z</time>
      </trkpt>
      <trkpt lat="47.51687" lon="19.07438">
        <ele>112.703911</ele>
        <time>2021-08-15T13:36:37.000Z</time>
      </trkpt>
      <trkpt lat="47.51669" lon="19.07462">
        <ele>112.831729</ele>
        <time>2021-08-15T13:36:44.000Z</time>
      </trkpt>
      <trkpt lat="47.51664" lon="19.07468">
        <ele>112.866082</ele>
        <time>2021-08-15T13:36:46.000Z</time>
      </trkpt>
      <trkpt lat="47.51646" lon="19.07493">
        <ele>112.997465</ele>
        <time>2021-08-15T13:36:54.000Z</time>
      </trkpt>
      <trkpt lat="47.51644" lon="19.07503">
        <ele>113.036172</ele>
        <time>2021-08-15T13:36:57.000Z</time>
      </trkpt>
      <trkpt lat="47.51644" lon="19.07504">
        <ele>113.037692</ele>
        <time>2021-08-15T13:36:58.000Z</time>
      </trkpt>
      <trkpt lat="47.51643" lon="19.07512">
        <ele>113.066023</ele>
        <time>2021-08-15T13:37:04.000Z</time>
      </trkpt>
      <trkpt lat="47.51644" lon="19.07515">
        <ele>113.077439</ele>
        <time>2021-08-15T13:37:05.000Z</time>
      </trkpt>
      <trkpt lat="47.51648" lon="19.07529">
        <ele>113.132269</ele>
        <time>2021-08-15T13:37:09.000Z</time>
      </trkpt>
      <trkpt lat="47.51659" lon="19.07549">
        <ele>113.222812</ele>
        <time>2021-08-15T13:37:15.000Z</time>
      </trkpt>
      <trkpt lat="47.51666" lon="19.07564">
        <ele>113.290496</ele>
        <time>2021-08-15T13:37:20.000Z</time>
      </trkpt>
      <trkpt lat="47.51668" lon="19.07567">
        <ele>113.304684</ele>
        <time>2021-08-15T13:37:21.000Z</time>
      </trkpt>
      <trkpt lat="47.51682" lon="19.07594">
        <ele>113.427444</ele>
        <time>2021-08-15T13:37:28.000Z</time>
      </trkpt>
      <trkpt lat="47.51689" lon="19.07606">
        <ele>113.482215</ele>
        <time>2021-08-15T13:37:31.000Z</time>
      </trkpt>
      <trkpt lat="47.51692" lon="19.07613">
        <ele>113.46358</ele>
        <time>2021-08-15T13:37:33.000Z</time>
      </trkpt>
      <trkpt lat="47.51696" lon="19.07621">
        <ele>113.439923</ele>
        <time>2021-08-15T13:37:35.000Z</time>
      </trkpt>
      <trkpt lat="47.51706" lon="19.07656">
        <ele>113.350994</ele>
        <time>2021-08-15T13:37:43.000Z</time>
      </trkpt>
      <trkpt lat="47.51714" lon="19.07684">
        <ele>113.279424</ele>
        <time>2021-08-15T13:37:50.000Z</time>
      </trkpt>
      <trkpt lat="47.5172" lon="19.0771">
        <ele>113.214378</ele>
        <time>2021-08-15T13:37:57.000Z</time>
      </trkpt>
      <trkpt lat="47.51724" lon="19.07728">
        <ele>113.16978</ele>
        <time>2021-08-15T13:38:03.000Z</time>
      </trkpt>
      <trkpt lat="47.51726" lon="19.07734">
        <ele>113.153159</ele>
        <time>2021-08-15T13:38:05.000Z</time>
      </trkpt>
      <trkpt lat="47.51731" lon="19.0774">
        <ele>113.132263</ele>
        <time>2021-08-15T13:38:08.000Z</time>
      </trkpt>
      <trkpt lat="47.51731" lon="19.07741">
        <ele>113.129734</ele>
        <time>2021-08-15T13:38:10.000Z</time>
      </trkpt>
      <trkpt lat="47.51732" lon="19.07743">
        <ele>113.125131</ele>
        <time>2021-08-15T13:38:11.000Z</time>
      </trkpt>
      <trkpt lat="47.51731" lon="19.07745">
        <ele>113.119527</ele>
        <time>2021-08-15T13:38:12.000Z</time>
      </trkpt>
      <trkpt lat="47.5173" lon="19.07753">
        <ele>113.099257</ele>
        <time>2021-08-15T13:38:16.000Z</time>
      </trkpt>
      <trkpt lat="47.51728" lon="19.07762">
        <ele>113.078133</ele>
        <time>2021-08-15T13:38:20.000Z</time>
      </trkpt>
      <trkpt lat="47.51727" lon="19.0777">
        <ele>113.058972</ele>
        <time>2021-08-15T13:38:23.000Z</time>
      </trkpt>
      <trkpt lat="47.51727" lon="19.07774">
        <ele>113.05</ele>
        <time>2021-08-15T13:38:25.000Z</time>
      </trkpt>
      <trkpt lat="47.51727" lon="19.07776">
        <ele>113.043357</ele>
        <time>2021-08-15T13:38:30.000Z</time>
      </trkpt>
      <trkpt lat="47.51722" lon="19.07775">
        <ele>113.025488</ele>
        <time>2021-08-15T13:38:38.000Z</time>
      </trkpt>
      <trkpt lat="47.51711" lon="19.07772">
        <ele>112.986801</ele>
        <time>2021-08-15T13:38:43.000Z</time>
      </trkpt>
      <trkpt lat="47.51707" lon="19.07774">
        <ele>112.972304</ele>
        <time>2021-08-15T13:38:45.000Z</time>
      </trkpt>
      <trkpt lat="47.51706" lon="19.07779">
        <ele>112.959097</ele>
        <time>2021-08-15T13:38:47.000Z</time>
      </trkpt>
      <trkpt lat="47.51706" lon="19.0778">
        <ele>112.957682</ele>
        <time>2021-08-15T13:38:51.000Z</time>
      </trkpt>
      <trkpt lat="47.51706" lon="19.0778">
        <ele>112.957682</ele>
        <time>2021-08-15T13:38:56.000Z</time>
      </trkpt>
      <trkpt lat="47.51706" lon="19.0778">
        <ele>112.957682</ele>
        <time>2021-08-15T13:39:01.000Z</time>
      </trkpt>
      <trkpt lat="47.51706" lon="19.0778">
        <ele>112.957682</ele>
        <time>2021-08-15T13:39:03.000Z</time>
      </trkpt>
      <trkpt lat="47.51706" lon="19.0778">
        <ele>112.957682</ele>
        <time>2021-08-15T13:39:18.000Z</time>
      </trkpt>
      <trkpt lat="47.51706" lon="19.0778">
        <ele>112.957682</ele>
        <time>2021-08-15T13:39:27.000Z</time>
      </trkpt>
      <trkpt lat="47.51706" lon="19.0778">
        <ele>112.957682</ele>
        <time>2021-08-15T13:39:37.000Z</time>
      </trkpt>
      <trkpt lat="47.51706" lon="19.0778">
        <ele>112.957682</ele>
        <time>2021-08-15T13:39:41.000Z</time>
      </trkpt>
      <trkpt lat="47.51706" lon="19.0778">
        <ele>112.95721</ele>
        <time>2021-08-15T13:39:51.000Z</time>
      </trkpt>
      <trkpt lat="47.51706" lon="19.07781">
        <ele>112.955839</ele>
        <time>2021-08-15T13:40:00.000Z</time>
      </trkpt>
      <trkpt lat="47.51704" lon="19.0778">
        <ele>112.947801</ele>
        <time>2021-08-15T13:40:01.000Z</time>
      </trkpt>
      <trkpt lat="47.51696" lon="19.07781">
        <ele>112.919819</ele>
        <time>2021-08-15T13:40:04.000Z</time>
      </trkpt>
      <trkpt lat="47.5167" lon="19.07784">
        <ele>112.904662</ele>
        <time>2021-08-15T13:40:12.000Z</time>
      </trkpt>
      <trkpt lat="47.51641" lon="19.07783">
        <ele>113.110278</ele>
        <time>2021-08-15T13:40:21.000Z</time>
      </trkpt>
      <trkpt lat="47.51625" lon="19.07787">
        <ele>113.223427</ele>
        <time>2021-08-15T13:40:26.000Z</time>
      </trkpt>
      <trkpt lat="47.51615" lon="19.07788">
        <ele>113.292457</ele>
        <time>2021-08-15T13:40:29.000Z</time>
      </trkpt>
      <trkpt lat="47.51597" lon="19.07791">
        <ele>113.419705</ele>
        <time>2021-08-15T13:40:35.000Z</time>
      </trkpt>
      <trkpt lat="47.51591" lon="19.07792">
        <ele>113.459832</ele>
        <time>2021-08-15T13:40:37.000Z</time>
      </trkpt>
      <trkpt lat="47.51581" lon="19.07804">
        <ele>113.552314</ele>
        <time>2021-08-15T13:40:42.000Z</time>
      </trkpt>
      <trkpt lat="47.51575" lon="19.07832">
        <ele>113.69003</ele>
        <time>2021-08-15T13:40:48.000Z</time>
      </trkpt>
      <trkpt lat="47.51564" lon="19.07864">
        <ele>113.861858</ele>
        <time>2021-08-15T13:40:55.000Z</time>
      </trkpt>
      <trkpt lat="47.51562" lon="19.07871">
        <ele>113.897247</ele>
        <time>2021-08-15T13:40:59.000Z</time>
      </trkpt>
      <trkpt lat="47.51558" lon="19.07872">
        <ele>113.923905</ele>
        <time>2021-08-15T13:41:02.000Z</time>
      </trkpt>
      <trkpt lat="47.51554" lon="19.07874">
        <ele>113.952854</ele>
        <time>2021-08-15T13:41:04.000Z</time>
      </trkpt>
      <trkpt lat="47.51551" lon="19.07881">
        <ele>113.992515</ele>
        <time>2021-08-15T13:41:08.000Z</time>
      </trkpt>
      <trkpt lat="47.5154" lon="19.07895">
        <ele>114.093762</ele>
        <time>2021-08-15T13:41:14.000Z</time>
      </trkpt>
      <trkpt lat="47.51537" lon="19.07897">
        <ele>114.116472</ele>
        <time>2021-08-15T13:41:15.000Z</time>
      </trkpt>
      <trkpt lat="47.51524" lon="19.07904">
        <ele>114.117277</ele>
        <time>2021-08-15T13:41:19.000Z</time>
      </trkpt>
      <trkpt lat="47.51509" lon="19.0791">
        <ele>114.117277</ele>
        <time>2021-08-15T13:41:24.000Z</time>
      </trkpt>
      <trkpt lat="47.51506" lon="19.0791">
        <ele>114.117277</ele>
        <time>2021-08-15T13:41:25.000Z</time>
      </trkpt>
      <trkpt lat="47.51488" lon="19.07906">
        <ele>114.117277</ele>
        <time>2021-08-15T13:41:32.000Z</time>
      </trkpt>
      <trkpt lat="47.5148" lon="19.07909">
        <ele>114.117277</ele>
        <time>2021-08-15T13:41:35.000Z</time>
      </trkpt>
      <trkpt lat="47.51477" lon="19.07917">
        <ele>114.117277</ele>
        <time>2021-08-15T13:41:37.000Z</time>
      </trkpt>
      <trkpt lat="47.51471" lon="19.07943">
        <ele>114.117277</ele>
        <time>2021-08-15T13:41:42.000Z</time>
      </trkpt>
      <trkpt lat="47.51468" lon="19.07953">
        <ele>114.117277</ele>
        <time>2021-08-15T13:41:44.000Z</time>
      </trkpt>
      <trkpt lat="47.51462" lon="19.07964">
        <ele>114.117277</ele>
        <time>2021-08-15T13:41:47.000Z</time>
      </trkpt>
      <trkpt lat="47.51449" lon="19.07982">
        <ele>114.117277</ele>
        <time>2021-08-15T13:41:53.000Z</time>
      </trkpt>
      <trkpt lat="47.5144" lon="19.07999">
        <ele>114.117277</ele>
        <time>2021-08-15T13:41:59.000Z</time>
      </trkpt>
      <trkpt lat="47.5144" lon="19.07999">
        <ele>114.117277</ele>
        <time>2021-08-15T13:42:03.000Z</time>
      </trkpt>
      <trkpt lat="47.51441" lon="19.07999">
        <ele>114.117277</ele>
        <time>2021-08-15T13:42:09.000Z</time>
      </trkpt>
      <trkpt lat="47.51441" lon="19.07999">
        <ele>114.117277</ele>
        <time>2021-08-15T13:42:14.000Z</time>
      </trkpt>
      <trkpt lat="47.51441" lon="19.07999">
        <ele>114.117277</ele>
        <time>2021-08-15T13:42:26.000Z</time>
      </trkpt>
      <trkpt lat="47.51441" lon="19.07999">
        <ele>114.117277</ele>
        <time>2021-08-15T13:42:49.000Z</time>
      </trkpt>
      <trkpt lat="47.51441" lon="19.07999">
        <ele>114.117277</ele>
        <time>2021-08-15T13:43:12.000Z</time>
      </trkpt>
      <trkpt lat="47.51441" lon="19.07999">
        <ele>114.117277</ele>
        <time>2021-08-15T13:43:17.000Z</time>
      </trkpt>
      <trkpt lat="47.51441" lon="19.07999">
        <ele>114.117277</ele>
        <time>2021-08-15T13:43:20.000Z</time>
      </trkpt>
      <trkpt lat="47.51441" lon="19.07999">
        <ele>114.117277</ele>
        <time>2021-08-15T13:43:21.000Z</time>
      </trkpt>
      <trkpt lat="47.51441" lon="19.07999">
        <ele>114.117277</ele>
        <time>2021-08-15T13:43:23.000Z</time>
      </trkpt>
      <trkpt lat="47.51437" lon="19.08002">
        <ele>114.117277</ele>
        <time>2021-08-15T13:43:26.000Z</time>
      </trkpt>
      <trkpt lat="47.51431" lon="19.08005">
        <ele>114.117277</ele>
        <time>2021-08-15T13:43:30.000Z</time>
      </trkpt>
      <trkpt lat="47.5143" lon="19.08005">
        <ele>114.117277</ele>
        <time>2021-08-15T13:43:32.000Z</time>
      </trkpt>
      <trkpt lat="47.5143" lon="19.08005">
        <ele>114.117277</ele>
        <time>2021-08-15T13:43:40.000Z</time>
      </trkpt>
      <trkpt lat="47.5143" lon="19.08005">
        <ele>114.117277</ele>
        <time>2021-08-15T13:43:57.000Z</time>
      </trkpt>
      <trkpt lat="47.5143" lon="19.08005">
        <ele>114.117277</ele>
        <time>2021-08-15T13:44:01.000Z</time>
      </trkpt>
      <trkpt lat="47.5143" lon="19.08005">
        <ele>114.117277</ele>
        <time>2021-08-15T13:44:04.000Z</time>
      </trkpt>
      <trkpt lat="47.5143" lon="19.08005">
        <ele>114.117277</ele>
        <time>2021-08-15T13:44:07.000Z</time>
      </trkpt>
      <trkpt lat="47.5143" lon="19.08005">
        <ele>114.117277</ele>
        <time>2021-08-15T13:44:09.000Z</time>
      </trkpt>
      <trkpt lat="47.5143" lon="19.08005">
        <ele>114.117277</ele>
        <time>2021-08-15T13:44:14.000Z</time>
      </trkpt>
      <trkpt lat="47.5143" lon="19.08005">
        <ele>114.117277</ele>
        <time>2021-08-15T13:44:21.000Z</time>
      </trkpt>
      <trkpt lat="47.5143" lon="19.08005">
        <ele>114.117277</ele>
        <time>2021-08-15T13:44:45.000Z</time>
      </trkpt>
    </trkseg>
  </trk>
</gpx>